Airfield :
LOGIN :

Register | Disclaimer

   EN    FR    IT 

 










Legend :    VFR   Marginal VFR   IFR   Intensive IFR   Very Intensive IFR
Visi :
Ceiling :
>= 8 km
>= 3000ft
5 to 8 km
1000 to 3000 ft
1500m to 5 km
500 to 1000 ft
800 to 1500m
200 to 500 ft
< 800m
< 200 ft
Symbols :   Thunderstorms  Fog  Heavy snow  Heavy precipitations  Wind > 20 kt
SIGMETs :     Misc.  Thunderstorms  Icing  Turbulence  Mountain Waves  Volcanic Ashes







- Airport Elevation : 218 ft


EGYD - RAF Cranwell

CURRENT METAR :
  • 220850Z 20025KT 9999 FEW020 BKN160 BKN250 13/10 Q0994 BLU TEMPO SCT020 WHT

EXPIRED METARs :
  • 220750Z 20022KT 9999 FEW022 BKN160 13/10 Q0995 BLU NOSIG
  • 220650Z 22023KT 9999 SCT045 BKN160 13/09 Q0995 BLU TEMPO SCT010 GRN
  • 220550Z AUTO 22024KT 9999 // SCT014/// BKN180/// 13/10 Q0996

TAF TAF EGYD
Valid from the 22 at 09:00 until the 22 at 18:00 UTC


220740Z 2209/2218 22023G33KT 9999 FEW018 BKN040
PROB40
TEMPO 2210/2218 BKN018
PROB40
TEMPO 2214/2218 22026G43KT
No reported NOTAMs for that airfield.
2 SIGMETs reported for the London FIR (EGTT) :
 
Severe turbulence
EGTT SIGMET 03 VALID 220803/221000 EGRR
EGTT LONDON FIR SEV TURB FCST WI N5100 W00800 - N5220 W00530 - N5318 W00530 - N5348 W00353 - N5139 W00412 - N5047 W00532 - N4920 W00534 - N4850 W00800 - N5100 W00800 SFC/FL060 MOV E 10KT INTSF=
Severe mountain waves
EGTT SIGMET 02 VALID 220600/221000 EGRR
EGTT LONDON FIR SEV MTW FCST WI N5500 E00045 - N5412 E00110 - N5047 W00255 - N5045 W00430 - N5310 W00414 - N5500 W00415 - N5500 E00045 FL040/180 STNR NC=



MET'MAP, your aeronautical weather chart ! - Copyright ORBIFLY December 2007 - Disclaimer

ORBIFLY MET'MAP TEAM :

Programming & Development : Alexandra Zaïnal
Concept & Development : Baudouin d'Aumeries
Co-Development & Prog : Marc-Olivier Méhu
Technical & hardware support : Manuel Goepfert

Contact : metmap@orbifly.com




SOURCES & CREDITS :

   NOAA